Time;durP1;ratioP1;P1;durP2;ratioP2;P2;SDS_P1;SDS_P2;PMS_P1;PMS_P2;Temp;Humidity;BMP_temperature;BMP_pressure;BME280_temperature;BME280_humidity;BME280_pressure;Samples;Min_cycle;Max_cycle;Signal;HPM_P1;HPM_P2
2023/05/15 00:02:17;;;;;;;7.90;6.90;;;;;;;16.47;50.02;100049.02;106105;1253;62562;-75
2023/05/15 00:04:44;;;;;;;7.50;6.70;;;;;;;16.38;50.29;100049.20;106056;1253;62384;-75
2023/05/15 00:07:11;;;;;;;9.50;6.70;;;;;;;16.29;50.51;100046.15;106103;1253;74969;-73
2023/05/15 00:09:38;;;;;;;12.80;6.50;;;;;;;16.22;50.64;100044.75;105890;1259;71397;-75
2023/05/15 00:12:05;;;;;;;8.50;7.10;;;;;;;16.16;50.52;100043.77;106127;1253;73522;-76
2023/05/15 00:14:32;;;;;;;8.60;6.50;;;;;;;16.11;50.38;100040.86;106580;1253;62071;-74
2023/05/15 00:16:59;;;;;;;12.60;6.50;;;;;;;16.07;50.83;100037.21;106516;1257;61579;-74
2023/05/15 00:19:26;;;;;;;7.40;6.70;;;;;;;16.03;51.10;100040.65;106016;1253;74858;-74
2023/05/15 00:21:52;;;;;;;7.90;6.50;;;;;;;15.98;51.29;100044.90;106136;1256;72309;-78
2023/05/15 00:24:20;;;;;;;8.30;7.10;;;;;;;15.90;51.29;100042.61;105951;1254;74702;-75
2023/05/15 00:26:47;;;;;;;7.30;6.60;;;;;;;15.82;51.32;100044.50;105982;1253;60509;-74
2023/05/15 00:29:14;;;;;;;8.30;6.90;;;;;;;15.74;51.67;100040.39;106032;1253;61097;-74
2023/05/15 00:31:40;;;;;;;8.20;7.30;;;;;;;15.65;51.81;100043.05;105887;1253;76015;-73
2023/05/15 00:34:07;;;;;;;10.40;7.30;;;;;;;15.56;52.13;100042.98;106029;1253;72428;-75
2023/05/15 00:36:36;;;;;;;7.70;6.50;;;;;;;15.47;52.43;100044.40;106067;1259;71902;-74
2023/05/15 00:39:03;;;;;;;9.00;6.80;;;;;;;15.40;52.69;100041.78;106032;1254;60874;-77
2023/05/15 00:41:31;;;;;;;10.20;6.40;;;;;;;15.32;52.87;100042.41;106158;1253;62917;-75
2023/05/15 00:43:59;;;;;;;9.00;6.60;;;;;;;15.23;52.80;100040.77;105939;1253;75324;-75
2023/05/15 00:46:26;;;;;;;8.80;6.70;;;;;;;15.17;53.15;100039.09;106011;1256;280227;-73
2023/05/15 00:49:46;;;;;;;10.00;7.30;;;;;;;15.11;53.17;100036.05;103323;1292;600201;-77
2023/05/15 00:52:13;;;;;;;10.90;7.60;;;;;;;15.04;53.11;100038.18;105409;1272;59472;-78
2023/05/15 00:54:39;;;;;;;11.00;7.40;;;;;;;15.01;53.24;100036.41;105618;1266;60990;-76
2023/05/15 00:57:07;;;;;;;9.20;7.00;;;;;;;14.99;53.35;100037.38;105595;1267;73122;-78
2023/05/15 00:59:35;;;;;;;8.20;7.00;;;;;;;14.98;53.39;100036.39;105726;1267;71727;-76
2023/05/15 01:02:02;;;;;;;7.00;6.10;;;;;;;14.97;53.74;100034.27;105471;1267;71104;-78
2023/05/15 01:04:30;;;;;;;7.70;6.40;;;;;;;14.91;53.72;100029.63;105856;1257;225551;-76
2023/05/15 01:06:57;;;;;;;15.20;7.20;;;;;;;14.82;53.76;100023.05;105972;1255;62290;-76
2023/05/15 01:09:26;;;;;;;10.20;7.70;;;;;;;14.76;53.64;100024.17;106352;1254;74670;-77
2023/05/15 01:11:53;;;;;;;7.40;6.70;;;;;;;14.72;53.79;100024.91;106838;1252;72295;-80
2023/05/15 01:14:20;;;;;;;10.10;7.30;;;;;;;14.70;54.00;100027.52;106993;1259;73580;-76
2023/05/15 01:16:47;;;;;;;10.00;6.50;;;;;;;14.67;54.37;100025.55;105826;1259;61566;-75
2023/05/15 01:19:14;;;;;;;11.60;7.20;;;;;;;14.64;54.43;100028.60;105749;1254;62255;-76
2023/05/15 01:22:04;;;;;;;7.90;6.80;;;;;;;14.62;54.56;100026.06;106101;1254;75330;-76
2023/05/15 01:24:49;;;;;;;11.70;6.80;;;;;;;14.61;54.60;100025.31;106285;1252;72122;-77
2023/05/15 01:27:36;;;;;;;9.20;7.20;;;;;;;14.59;54.77;100028.36;106343;1254;75163;-76
2023/05/15 01:30:21;;;;;;;10.90;7.70;;;;;;;14.54;54.68;100031.08;106290;1255;63423;-76
2023/05/15 01:33:15;;;;;;;10.80;7.60;;;;;;;14.49;54.64;100027.23;106305;1259;60688;-75
2023/05/15 01:35:46;;;;;;;11.40;7.40;;;;;;;14.46;54.47;100025.39;106234;1258;73015;-74
2023/05/15 01:38:32;;;;;;;7.50;6.30;;;;;;;14.46;54.60;100028.67;106224;1259;71326;-75
2023/05/15 01:41:05;;;;;;;11.50;7.70;;;;;;;14.44;54.87;100028.36;105972;1254;73906;-75
2023/05/15 01:43:32;;;;;;;13.70;7.60;;;;;;;14.40;54.98;100028.45;105989;1254;62284;-76
2023/05/15 01:46:00;;;;;;;9.90;7.00;;;;;;;14.38;55.03;100030.59;106070;1254;60686;-75
2023/05/15 01:48:27;;;;;;;14.20;7.30;;;;;;;14.33;55.10;100028.60;105908;1260;74815;-76
2023/05/15 01:50:57;;;;;;;10.30;7.40;;;;;;;14.29;55.23;100031.45;106091;1258;72138;-74
2023/05/15 01:53:24;;;;;;;9.90;7.10;;;;;;;14.24;55.66;100027.40;106194;1257;72442;-75
2023/05/15 01:55:51;;;;;;;7.90;7.10;;;;;;;14.19;56.04;100026.89;106433;1259;59729;-76
2023/05/15 01:58:17;;;;;;;9.40;7.80;;;;;;;14.16;56.37;100023.76;105797;1259;62655;-77
2023/05/15 02:00:44;;;;;;;11.70;8.10;;;;;;;14.12;56.58;100027.73;105786;1259;74294;-78
2023/05/15 02:03:11;;;;;;;11.80;8.20;;;;;;;14.10;56.63;100026.02;105851;1254;72451;-76
2023/05/15 02:05:39;;;;;;;13.00;7.70;;;;;;;14.09;56.61;100025.23;106059;1254;72026;-76
2023/05/15 02:08:06;;;;;;;9.40;7.90;;;;;;;14.10;56.49;100022.81;105871;1254;59623;-75
2023/05/15 02:10:33;;;;;;;8.30;7.10;;;;;;;14.11;56.48;100018.60;105694;1254;62165;-76
2023/05/15 02:12:59;;;;;;;10.40;8.60;;;;;;;14.12;56.45;100020.34;105677;1260;74944;-77
2023/05/15 02:15:27;;;;;;;10.90;8.10;;;;;;;14.12;56.40;100021.90;105969;1254;72011;-74
2023/05/15 02:17:54;;;;;;;10.80;8.00;;;;;;;14.11;56.47;100020.17;105722;1260;74573;-75
2023/05/15 02:20:20;;;;;;;14.80;8.00;;;;;;;14.11;56.46;100020.04;105885;1257;62666;-75
2023/05/15 02:22:47;;;;;;;13.70;8.70;;;;;;;14.10;56.55;100022.69;105934;1255;61070;-75
2023/05/15 02:25:14;;;;;;;11.70;8.20;;;;;;;14.09;56.58;100022.46;105957;1254;72902;-75
2023/05/15 02:27:47;;;;;;;10.30;8.80;;;;;;;14.08;56.61;100025.21;105939;1254;70064;-76
2023/05/15 02:30:34;;;;;;;9.90;8.90;;;;;;;14.08;56.46;100024.44;105853;1259;73295;-75
2023/05/15 02:33:19;;;;;;;12.60;8.20;;;;;;;14.10;56.66;100023.89;105917;1258;62695;-76
2023/05/15 02:36:02;;;;;;;14.70;9.10;;;;;;;14.10;56.86;100018.70;106238;1259;62145;-76
2023/05/15 02:38:44;;;;;;;11.10;8.00;;;;;;;14.10;56.95;100024.58;106434;1254;75048;-74
2023/05/15 02:41:11;;;;;;;14.80;9.10;;;;;;;14.09;57.16;100024.77;106062;1254;71276;-74
2023/05/15 02:43:38;;;;;;;11.30;8.70;;;;;;;14.06;57.27;100027.23;105724;1255;74765;-75
2023/05/15 02:46:06;;;;;;;14.40;9.10;;;;;;;14.07;57.51;100029.84;105558;1263;59493;-76
2023/05/15 02:48:34;;;;;;;17.60;8.60;;;;;;;14.07;57.67;100029.59;105929;1255;62650;-77
2023/05/15 02:51:01;;;;;;;16.90;10.10;;;;;;;14.09;57.63;100030.73;105991;1260;73576;-77
2023/05/15 02:53:28;;;;;;;16.00;8.70;;;;;;;14.11;57.69;100028.78;105922;1254;72684;-76
2023/05/15 02:55:55;;;;;;;18.00;8.10;;;;;;;14.11;57.72;100021.67;106459;1254;74602;-76
2023/05/15 02:58:21;;;;;;;17.00;8.80;;;;;;;14.13;57.69;100020.67;107508;1254;60984;-76
2023/05/15 03:00:48;;;;;;;12.60;8.40;;;;;;;14.17;57.77;100016.46;106128;1259;60524;-77
2023/05/15 03:03:15;;;;;;;17.90;8.40;;;;;;;14.20;57.61;100017.02;106423;1254;74200;-76
2023/05/15 03:05:42;;;;;;;16.80;8.30;;;;;;;14.23;57.67;100016.66;106055;1254;72241;-77
2023/05/15 03:08:09;;;;;;;16.70;9.40;;;;;;;14.25;57.60;100020.34;105818;1254;75004;-79
2023/05/15 03:10:36;;;;;;;16.60;9.30;;;;;;;14.28;57.55;100020.64;106030;1259;61028;-74
2023/05/15 03:13:02;;;;;;;25.00;9.40;;;;;;;14.30;57.83;100020.04;106746;1260;59810;-78
2023/05/15 03:15:29;;;;;;;21.60;9.50;;;;;;;14.32;57.86;100018.15;106082;1260;73897;-78
2023/05/15 03:17:56;;;;;;;20.10;10.20;;;;;;;14.35;57.85;100015.52;106247;1261;70854;-76
2023/05/15 03:20:23;;;;;;;26.40;10.20;;;;;;;14.40;57.75;100014.98;105997;1257;74944;-73
2023/05/15 03:22:50;;;;;;;19.70;9.80;;;;;;;14.45;57.93;100015.42;107854;1254;59678;-75
2023/05/15 03:25:17;;;;;;;24.50;8.90;;;;;;;14.49;57.83;100011.90;106277;1254;60481;-76
2023/05/15 03:27:44;;;;;;;21.10;9.50;;;;;;;14.54;57.89;100010.85;106560;1260;74812;-75
2023/05/15 03:30:11;;;;;;;28.50;10.00;;;;;;;14.59;57.82;100011.22;106595;1258;69034;-77
2023/05/15 03:32:38;;;;;;;21.50;10.00;;;;;;;14.66;57.96;100013.93;105897;1260;74799;-74
2023/05/15 03:35:05;;;;;;;18.80;9.30;;;;;;;14.71;57.91;100016.71;105561;1257;60729;-75
2023/05/15 03:37:32;;;;;;;20.20;9.00;;;;;;;14.76;58.09;100017.21;106349;1257;61877;-76
2023/05/15 03:39:59;;;;;;;18.40;9.70;;;;;;;14.79;58.10;100019.69;107674;1254;74440;-73
2023/05/15 03:42:26;;;;;;;21.20;9.60;;;;;;;14.84;58.40;100017.92;107538;1254;69186;-73
2023/05/15 03:44:55;;;;;;;21.50;10.30;;;;;;;14.90;58.64;100016.22;107364;1254;74518;-75
2023/05/15 03:47:22;;;;;;;22.80;10.40;;;;;;;14.98;58.50;100021.24;107524;1256;61705;-75
2023/05/15 03:49:51;;;;;;;25.30;10.60;;;;;;;15.06;58.76;100024.90;107823;1254;61458;-74
2023/05/15 03:52:18;;;;;;;27.20;10.90;;;;;;;15.15;58.61;100025.77;107920;1255;74041;-74
2023/05/15 03:54:45;;;;;;;33.50;10.50;;;;;;;15.24;58.63;100027.10;107599;1254;69559;-73
2023/05/15 03:57:12;;;;;;;29.70;10.60;;;;;;;15.33;58.41;100032.20;107519;1254;73550;-74
2023/05/15 03:59:39;;;;;;;27.40;10.00;;;;;;;15.44;58.57;100030.94;106974;1260;61507;-74
2023/05/15 04:02:05;;;;;;;26.10;9.80;;;;;;;15.55;58.37;100031.85;106866;1259;61925;-75
2023/05/15 04:04:32;;;;;;;18.90;7.10;;;;;;;15.65;56.61;100033.63;108161;1254;74000;-75
2023/05/15 04:06:59;;;;;;;15.70;6.70;;;;;;;15.80;52.64;100032.98;107908;1259;71237;-76
2023/05/15 04:09:26;;;;;;;15.50;7.30;;;;;;;16.02;51.45;100026.49;108396;1254;74755;-77
2023/05/15 04:11:53;;;;;;;15.10;7.20;;;;;;;16.25;51.08;100025.11;108026;1254;62683;-79
2023/05/15 04:14:20;;;;;;;20.20;9.80;;;;;;;16.50;51.27;100021.67;107353;1259;61983;-74
2023/05/15 04:16:47;;;;;;;26.60;9.80;;;;;;;16.74;52.50;100023.74;106021;1260;73855;-75
2023/05/15 04:19:14;;;;;;;22.60;9.10;;;;;;;16.95;52.86;100024.61;105526;1261;72594;-73
2023/05/15 04:21:41;;;;;;;35.30;9.90;;;;;;;17.15;52.70;100025.39;105814;1257;73995;-74
2023/05/15 04:24:08;;;;;;;23.50;10.00;;;;;;;17.32;52.80;100026.00;106027;1258;62207;-77
2023/05/15 04:26:35;;;;;;;32.40;10.80;;;;;;;17.47;52.92;100024.44;105980;1259;62438;-77
2023/05/15 04:29:02;;;;;;;30.00;10.00;;;;;;;17.67;52.75;100026.83;105620;1254;75023;-76
2023/05/15 04:31:30;;;;;;;23.70;9.60;;;;;;;17.84;52.49;100024.75;105991;1259;72461;-74
2023/05/15 04:33:58;;;;;;;53.80;13.10;;;;;;;17.98;52.22;100024.55;105911;1260;73050;-74
2023/05/15 04:36:24;;;;;;;34.30;9.60;;;;;;;18.13;52.05;100021.45;106045;1261;61261;-73
2023/05/15 04:38:51;;;;;;;23.70;9.20;;;;;;;18.28;51.91;100017.48;106019;1260;60597;-73
2023/05/15 04:41:18;;;;;;;30.20;8.70;;;;;;;18.40;51.85;100014.92;105639;1260;71446;-77
2023/05/15 04:43:45;;;;;;;21.00;8.10;;;;;;;18.56;51.30;100013.73;106057;1260;70845;-77
2023/05/15 04:46:12;;;;;;;25.40;9.50;;;;;;;18.82;50.89;100010.52;105930;1257;74686;-76
2023/05/15 04:48:38;;;;;;;26.90;9.00;;;;;;;19.07;50.44;100012.13;106061;1260;59962;-74
2023/05/15 04:51:06;;;;;;;24.20;8.80;;;;;;;19.25;50.14;100012.16;106049;1259;62436;-76
2023/05/15 04:53:33;;;;;;;20.50;7.70;;;;;;;19.47;49.85;100012.70;106006;1260;75242;-77
2023/05/15 04:56:00;;;;;;;25.80;8.40;;;;;;;19.81;49.44;100013.17;106349;1258;73030;-78
2023/05/15 04:58:27;;;;;;;22.40;9.20;;;;;;;20.17;49.17;100011.35;106243;1259;75601;-77
2023/05/15 05:00:53;;;;;;;22.10;8.50;;;;;;;20.46;48.44;100011.15;106181;1263;61181;-77
2023/05/15 05:03:20;;;;;;;30.40;7.60;;;;;;;20.64;47.80;100005.86;105945;1254;60894;-78
2023/05/15 05:05:47;;;;;;;22.20;7.90;;;;;;;20.80;47.44;100004.00;106039;1254;74424;-78
2023/05/15 05:08:14;;;;;;;19.40;7.40;;;;;;;20.92;46.48;100003.70;106759;1256;71317;-77
2023/05/15 05:10:41;;;;;;;16.30;7.60;;;;;;;21.03;45.82;100001.92;106945;1257;71261;-79
2023/05/15 05:13:08;;;;;;;26.20;7.40;;;;;;;21.13;45.46;100000.33;106668;1261;61183;-78
2023/05/15 05:15:35;;;;;;;15.90;6.60;;;;;;;21.19;44.04;100001.84;106400;1253;61604;-77
2023/05/15 05:18:03;;;;;;;15.20;6.30;;;;;;;21.27;43.44;99998.58;106027;1254;73203;-78
2023/05/15 05:20:30;;;;;;;15.50;6.50;;;;;;;21.32;42.68;99993.84;106169;1259;71065;-76
2023/05/15 05:22:56;;;;;;;13.30;6.20;;;;;;;21.39;42.18;99991.80;106028;1254;71627;-76
2023/05/15 05:25:23;;;;;;;13.50;5.20;;;;;;;21.47;41.54;99992.13;105903;1260;61216;-75
2023/05/15 05:27:51;;;;;;;14.60;6.30;;;;;;;21.55;41.14;99990.70;105809;1260;61408;-75
2023/05/15 05:30:18;;;;;;;12.30;6.40;;;;;;;21.63;40.84;99991.48;105943;1254;72755;-75
2023/05/15 05:32:44;;;;;;;14.60;6.20;;;;;;;21.70;40.62;99996.13;105915;1256;72039;-75
2023/05/15 05:35:11;;;;;;;6.60;4.70;;;;;;;21.78;39.73;99996.70;105918;1259;71591;-75
2023/05/15 05:37:38;;;;;;;9.30;5.00;;;;;;;21.86;39.07;99998.15;105805;1260;61166;-76
2023/05/15 05:40:08;;;;;;;7.70;4.40;;;;;;;21.92;38.70;99991.91;105887;1260;62322;-76
2023/05/15 05:42:34;;;;;;;7.80;5.10;;;;;;;21.96;37.97;99990.50;105929;1254;74922;-74
2023/05/15 05:45:01;;;;;;;8.70;5.10;;;;;;;21.98;37.76;99991.08;105842;1261;71364;-74
2023/05/15 05:47:28;;;;;;;6.20;4.40;;;;;;;22.00;37.83;99989.73;105844;1259;73861;-73
2023/05/15 05:49:55;;;;;;;8.60;4.40;;;;;;;22.04;37.51;99982.65;106141;1257;62455;-76
2023/05/15 05:52:22;;;;;;;8.30;4.60;;;;;;;22.09;37.37;99982.71;105824;1260;60959;-72
2023/05/15 05:54:49;;;;;;;5.60;4.70;;;;;;;22.16;37.25;99984.53;105933;1260;76028;-78
2023/05/15 05:57:15;;;;;;;6.60;4.20;;;;;;;22.19;36.82;99983.15;106009;1258;72114;-75
2023/05/15 05:59:42;;;;;;;8.30;5.20;;;;;;;22.23;36.88;99985.88;105782;1254;75189;-73
2023/05/15 06:02:10;;;;;;;16.00;5.30;;;;;;;22.30;37.18;99982.17;105862;1259;60334;-73
2023/05/15 06:04:37;;;;;;;7.20;5.10;;;;;;;22.34;37.12;99979.41;106005;1254;62240;-75
2023/05/15 06:07:04;;;;;;;9.90;5.80;;;;;;;22.35;37.24;99978.06;105954;1260;72534;-74
2023/05/15 06:09:31;;;;;;;9.40;6.00;;;;;;;22.42;37.80;99978.17;106010;1259;70230;-75
2023/05/15 06:11:59;;;;;;;13.70;7.20;;;;;;;22.50;38.43;99976.09;106396;1254;73698;-71
2023/05/15 06:14:26;;;;;;;13.60;7.80;;;;;;;22.58;39.10;99979.50;106369;1260;62482;-71
2023/05/15 06:16:53;;;;;;;14.30;7.20;;;;;;;22.66;39.94;99975.53;106477;1260;62320;-73
2023/05/15 06:19:20;;;;;;;13.30;7.50;;;;;;;22.74;40.20;99974.60;106529;1260;74451;-73
2023/05/15 06:21:48;;;;;;;9.40;7.20;;;;;;;22.81;40.27;99974.61;106377;1257;72266;-72
2023/05/15 06:24:15;;;;;;;11.70;7.20;;;;;;;22.85;39.98;99971.70;106429;1260;72751;-73
2023/05/15 06:26:42;;;;;;;13.20;6.40;;;;;;;22.89;39.65;99972.36;107218;1256;62181;-74
2023/05/15 06:29:08;;;;;;;11.60;6.00;;;;;;;22.93;39.72;99973.96;106519;1254;62422;-74
2023/05/15 06:31:35;;;;;;;8.90;5.20;;;;;;;22.98;38.75;99969.55;106593;1254;74847;-70
2023/05/15 06:34:02;;;;;;;13.90;6.70;;;;;;;23.03;38.56;99969.55;106635;1254;68327;-73
2023/05/15 06:36:29;;;;;;;9.50;5.80;;;;;;;23.08;39.51;99967.60;106599;1254;74778;-73
2023/05/15 06:38:55;;;;;;;12.10;5.60;;;;;;;23.09;39.24;99969.39;106468;1259;61479;-73
2023/05/15 06:41:22;;;;;;;8.50;5.70;;;;;;;23.08;39.29;99967.36;106471;1260;60633;-75
2023/05/15 06:43:49;;;;;;;11.00;5.90;;;;;;;23.11;39.34;99958.20;106349;1259;74560;-71
2023/05/15 06:46:17;;;;;;;10.00;6.10;;;;;;;23.15;39.51;99957.84;106231;1259;71309;-74
2023/05/15 06:48:48;;;;;;;10.60;6.00;;;;;;;23.21;39.36;99958.20;106278;1254;74748;-72
2023/05/15 06:51:15;;;;;;;6.60;5.00;;;;;;;23.25;38.63;99955.51;106229;1258;60526;-68
2023/05/15 06:53:41;;;;;;;7.80;5.30;;;;;;;23.29;37.37;99962.34;106131;1254;62564;-73
2023/05/15 06:56:08;;;;;;;8.50;5.10;;;;;;;23.29;37.23;99960.50;106399;1254;76002;-72
2023/05/15 06:58:35;;;;;;;9.10;5.20;;;;;;;23.30;37.31;99961.02;106239;1259;71059;-70
2023/05/15 07:01:02;;;;;;;9.00;5.60;;;;;;;23.33;37.24;99958.77;105989;1256;73305;-71
2023/05/15 07:03:29;;;;;;;10.00;5.80;;;;;;;23.35;37.54;99959.73;106589;1254;61407;-73
2023/05/15 07:05:56;;;;;;;7.20;5.30;;;;;;;23.40;37.54;99956.61;106377;1258;61231;-73
2023/05/15 07:08:23;;;;;;;9.40;5.40;;;;;;;23.44;37.51;99954.98;106044;1254;74725;-69
2023/05/15 07:10:50;;;;;;;7.40;5.70;;;;;;;23.50;38.02;99956.21;106442;1259;71322;-72
2023/05/15 07:13:17;;;;;;;8.40;5.40;;;;;;;23.58;37.70;99961.92;106402;1254;70914;-75
2023/05/15 07:15:44;;;;;;;8.10;5.60;;;;;;;23.61;37.01;99960.29;106517;1254;62097;-74
2023/05/15 07:18:10;;;;;;;9.40;5.50;;;;;;;23.63;37.11;99959.23;106598;1258;60520;-71
2023/05/15 07:20:38;;;;;;;8.30;5.50;;;;;;;23.66;36.99;99960.52;106610;1259;72878;-74
2023/05/15 07:23:05;;;;;;;7.60;5.90;;;;;;;23.69;36.46;99959.77;107673;1254;70976;-74
2023/05/15 07:25:43;;;;;;;12.50;5.50;;;;;;;23.75;36.28;99957.73;108854;1254;74225;-74
2023/05/15 07:28:17;;;;;;;7.70;4.50;;;;;;;23.81;35.73;99947.36;108614;1257;59617;-71
2023/05/15 07:30:43;;;;;;;7.60;4.50;;;;;;;23.86;33.62;99959.42;108255;1260;61496;-74
2023/05/15 07:33:11;;;;;;;7.00;4.10;;;;;;;23.84;32.80;99952.66;109104;1254;74784;-76
2023/05/15 07:35:37;;;;;;;11.60;4.10;;;;;;;23.82;32.67;99950.80;109240;1254;71332;-74
2023/05/15 07:38:04;;;;;;;6.20;4.10;;;;;;;23.83;32.18;99946.46;108705;1254;71806;-73
2023/05/15 07:40:31;;;;;;;7.00;4.30;;;;;;;23.89;32.07;99947.25;108499;1254;61289;-74
2023/05/15 07:42:58;;;;;;;5.60;4.30;;;;;;;23.96;32.15;99950.23;109032;1254;61303;-74
2023/05/15 07:45:25;;;;;;;7.40;4.90;;;;;;;24.00;31.61;99946.15;108694;1254;74958;-74
2023/05/15 07:47:53;;;;;;;7.30;4.30;;;;;;;24.00;31.77;99950.65;108610;1253;71208;-74
2023/05/15 07:50:20;;;;;;;6.00;4.40;;;;;;;24.00;31.20;99952.17;108850;1254;73777;-71
2023/05/15 07:52:47;;;;;;;5.10;3.90;;;;;;;23.99;31.66;99944.77;108782;1254;62570;-73
2023/05/15 07:55:13;;;;;;;6.40;4.00;;;;;;;23.99;31.77;99936.25;109133;1254;62762;-73
2023/05/15 07:57:40;;;;;;;5.00;4.20;;;;;;;24.02;31.88;99934.99;108938;1254;72577;-73
2023/05/15 08:00:11;;;;;;;7.70;4.50;;;;;;;24.07;31.96;99934.14;108023;1253;72544;-72
2023/05/15 08:02:39;;;;;;;8.20;4.80;;;;;;;24.15;32.00;99930.16;108474;1254;73760;-74
2023/05/15 08:05:07;;;;;;;5.60;4.20;;;;;;;24.24;32.14;99931.13;108073;1254;62889;-73
2023/05/15 08:07:34;;;;;;;4.20;3.80;;;;;;;24.31;31.51;99927.96;108510;1260;61099;-73
2023/05/15 08:10:03;;;;;;;6.20;4.20;;;;;;;24.35;31.64;99927.52;108191;1254;74874;-74
2023/05/15 08:12:30;;;;;;;6.10;4.60;;;;;;;24.42;31.65;99926.94;108193;1254;69491;-74
2023/05/15 08:14:56;;;;;;;4.70;3.80;;;;;;;24.44;31.64;99921.52;108903;1254;74947;-74
2023/05/15 08:17:23;;;;;;;10.60;4.20;;;;;;;24.44;31.60;99917.40;108695;1259;61197;-73
2023/05/15 08:19:51;;;;;;;6.80;3.90;;;;;;;24.46;31.72;99917.96;108553;1255;60462;-73
2023/05/15 08:22:18;;;;;;;6.30;4.10;;;;;;;24.52;31.70;99913.31;108212;1254;72543;-73
2023/05/15 08:24:44;;;;;;;9.20;4.10;;;;;;;24.64;31.61;99910.29;108577;1254;71211;-73
2023/05/15 08:27:11;;;;;;;5.00;4.00;;;;;;;24.80;31.22;99912.13;107949;1254;71236;-72
2023/05/15 08:29:38;;;;;;;5.40;3.40;;;;;;;24.95;31.11;99908.51;108041;1259;60592;-74
2023/05/15 08:32:07;;;;;;;4.10;3.60;;;;;;;25.10;30.88;99907.05;108206;1254;59799;-74
2023/05/15 08:34:34;;;;;;;3.90;3.50;;;;;;;25.27;30.68;99908.89;108717;1253;74495;-75
2023/05/15 08:37:01;;;;;;;9.80;3.80;;;;;;;25.43;30.44;99908.35;109059;1253;69719;-73
2023/05/15 08:39:28;;;;;;;7.70;4.20;;;;;;;25.55;30.04;99912.55;108698;1254;73313;-74
2023/05/15 08:42:04;;;;;;;6.70;3.60;;;;;;;25.61;30.06;99909.31;108036;1257;61181;-73
2023/05/15 08:44:31;;;;;;;6.50;3.90;;;;;;;25.74;30.00;99908.08;107878;1253;61660;-73
2023/05/15 08:46:58;;;;;;;5.30;3.40;;;;;;;25.83;29.56;99910.30;107474;1254;74461;-73
2023/05/15 08:49:53;;;;;;;6.00;3.60;;;;;;;25.86;28.85;99907.38;106280;1255;72401;-74
2023/05/15 08:52:20;;;;;;;6.50;3.80;;;;;;;25.87;28.94;99901.34;105832;1257;74906;-72
2023/05/15 08:54:47;;;;;;;5.50;3.60;;;;;;;25.95;29.05;99895.69;105904;1254;60893;-71
2023/05/15 08:57:14;;;;;;;6.40;3.80;;;;;;;26.12;28.77;99900.80;105966;1253;60576;-72
2023/05/15 08:59:41;;;;;;;6.10;3.70;;;;;;;26.30;28.53;99902.60;105881;1254;75766;-73
2023/05/15 09:02:08;;;;;;;5.70;3.60;;;;;;;26.45;28.44;99895.17;105741;1259;70080;-75
2023/05/15 09:04:35;;;;;;;8.30;3.50;;;;;;;26.65;28.42;99893.76;105891;1257;72235;-74
2023/05/15 09:07:02;;;;;;;4.10;3.10;;;;;;;26.90;28.14;99892.89;105727;1260;61312;-75
2023/05/15 09:09:29;;;;;;;4.30;3.30;;;;;;;27.13;27.49;99895.93;105854;1256;60756;-72
2023/05/15 09:11:56;;;;;;;7.00;3.80;;;;;;;27.25;27.27;99901.41;105729;1254;74732;-74
2023/05/15 09:14:23;;;;;;;8.70;3.90;;;;;;;27.30;27.38;99889.62;105851;1254;70586;-73
2023/05/15 09:16:52;;;;;;;11.30;4.10;;;;;;;27.45;27.50;99894.71;105929;1257;74605;-75
2023/05/15 09:19:20;;;;;;;5.40;3.80;;;;;;;27.87;27.42;99893.17;105987;1255;60438;-74
2023/05/15 09:21:48;;;;;;;6.60;4.00;;;;;;;28.43;26.51;99888.91;105906;1257;61691;-72
2023/05/15 09:24:18;;;;;;;5.30;3.70;;;;;;;28.90;26.10;99881.27;105850;1254;76068;-74
2023/05/15 09:26:46;;;;;;;5.70;3.40;;;;;;;29.31;25.84;99884.45;105900;1254;72193;-73
2023/05/15 09:29:16;;;;;;;5.40;3.70;;;;;;;29.69;25.46;99883.30;105871;1257;74697;-75
2023/05/15 09:31:47;;;;;;;5.00;3.40;;;;;;;30.14;25.39;99874.30;105990;1255;61377;-73
2023/05/15 09:34:14;;;;;;;6.90;3.50;;;;;;;30.77;24.65;99876.00;105686;1257;60466;-73
2023/05/15 09:36:43;;;;;;;5.00;3.80;;;;;;;31.19;24.65;99878.98;105959;1254;76500;-75
2023/05/15 09:39:10;;;;;;;8.40;4.20;;;;;;;31.58;24.35;99875.40;105865;1254;73792;-72
2023/05/15 09:41:41;;;;;;;7.60;4.00;;;;;;;32.11;24.14;99880.58;105878;1254;74740;-75
2023/05/15 09:44:17;;;;;;;6.70;3.60;;;;;;;32.69;23.59;99871.03;105908;1257;60967;-74
2023/05/15 09:46:47;;;;;;;5.00;3.90;;;;;;;33.12;22.81;99880.35;105809;1254;61730;-72
2023/05/15 09:49:14;;;;;;;4.70;4.20;;;;;;;33.25;22.40;99874.23;105818;1254;76129;-73
2023/05/15 09:51:43;;;;;;;4.30;3.70;;;;;;;33.35;22.46;99873.48;105855;1259;70959;-73
2023/05/15 09:54:14;;;;;;;8.50;3.80;;;;;;;33.47;22.18;99882.49;105876;1254;74794;-75
2023/05/15 09:56:45;;;;;;;4.00;3.40;;;;;;;33.60;21.83;99874.06;105918;1253;62124;-74
2023/05/15 09:59:17;;;;;;;4.40;3.40;;;;;;;33.64;21.55;99878.07;105829;1257;62844;-72
2023/05/15 10:01:45;;;;;;;4.30;2.80;;;;;;;33.56;21.24;99883.67;105953;1254;75204;-73
2023/05/15 10:04:12;;;;;;;3.80;3.20;;;;;;;33.47;21.56;99876.05;105617;1253;73584;-73
2023/05/15 10:06:41;;;;;;;4.30;2.90;;;;;;;33.63;21.36;99869.99;105864;1254;73526;-72
2023/05/15 10:09:09;;;;;;;4.50;2.90;;;;;;;33.91;21.31;99872.34;105806;1254;62061;-75
2023/05/15 10:11:39;;;;;;;4.80;3.20;;;;;;;34.21;21.00;99869.52;105923;1261;61078;-76
2023/05/15 10:14:07;;;;;;;3.80;3.30;;;;;;;34.50;21.33;99862.71;106020;1254;76186;-73
2023/05/15 10:16:35;;;;;;;4.50;3.20;;;;;;;34.94;20.98;99861.91;105758;1254;72371;-73
2023/05/15 10:19:03;;;;;;;4.00;3.60;;;;;;;35.20;20.68;99860.82;106022;1254;66139;-76
2023/05/15 10:21:32;;;;;;;3.80;3.40;;;;;;;35.20;20.70;99858.22;105960;1254;60634;-75
2023/05/15 10:24:00;;;;;;;4.80;3.30;;;;;;;35.25;20.62;99855.13;105923;1259;60530;-73
2023/05/15 10:26:37;;;;;;;7.40;3.50;;;;;;;35.51;20.67;99846.77;105849;1258;66121;-74
2023/05/15 10:29:07;;;;;;;3.90;3.40;;;;;;;35.88;20.59;99853.23;106001;1258;62583;-76
2023/05/15 10:31:35;;;;;;;5.20;3.80;;;;;;;36.19;20.33;99857.65;105994;1254;66364;-74
2023/05/15 10:34:05;;;;;;;4.80;3.60;;;;;;;36.44;19.80;99867.43;105824;1254;60456;-74
2023/05/15 10:36:33;;;;;;;4.80;3.20;;;;;;;36.28;19.76;99855.25;105946;1254;60508;-74
2023/05/15 10:39:00;;;;;;;4.00;3.60;;;;;;;36.15;20.09;99852.30;106042;1254;67540;-75
2023/05/15 10:41:28;;;;;;;4.00;3.60;;;;;;;36.30;19.99;99847.49;105925;1253;63966;-76
2023/05/15 10:43:57;;;;;;;4.40;3.80;;;;;;;36.53;20.08;99840.65;105720;1259;65912;-73
2023/05/15 10:46:25;;;;;;;6.50;3.90;;;;;;;36.88;19.97;99845.21;105771;1254;60510;-76
2023/05/15 10:48:52;;;;;;;6.90;4.10;;;;;;;37.17;19.81;99841.80;105923;1253;60629;-74
2023/05/15 10:51:26;;;;;;;4.30;3.90;;;;;;;37.36;19.54;99827.93;105759;1253;67335;-75
2023/05/15 10:53:54;;;;;;;4.20;3.60;;;;;;;37.55;19.68;99824.98;105831;1254;63687;-75
2023/05/15 10:56:25;;;;;;;5.40;4.30;;;;;;;37.68;19.61;99822.27;105907;1254;66141;-73
2023/05/15 10:58:53;;;;;;;4.00;3.30;;;;;;;37.85;19.73;99822.13;105964;1255;61012;-73
2023/05/15 11:01:31;;;;;;;4.50;4.10;;;;;;;38.09;19.83;99823.98;105788;1253;60613;-74
2023/05/15 11:04:05;;;;;;;4.70;4.20;;;;;;;38.14;19.94;99819.34;105769;1254;67769;-73
2023/05/15 11:06:32;;;;;;;4.50;3.50;;;;;;;38.14;19.45;99821.73;105755;1254;63491;-74
2023/05/15 11:09:36;;;;;;;6.30;3.70;;;;;;;38.04;19.58;99808.27;105545;1255;65962;-76
2023/05/15 11:12:04;;;;;;;4.30;3.90;;;;;;;38.25;19.92;99809.12;105461;1260;60450;-76
2023/05/15 11:14:34;;;;;;;6.30;4.30;;;;;;;38.56;19.51;99812.06;105785;1254;60593;-75
2023/05/15 11:17:03;;;;;;;6.70;4.10;;;;;;;38.28;19.55;99817.05;105880;1259;76184;-75
2023/05/15 11:19:32;;;;;;;3.90;3.40;;;;;;;37.83;19.84;99806.38;105841;1260;62586;-74
2023/05/15 11:22:14;;;;;;;5.30;3.50;;;;;;;37.47;19.96;99795.94;105862;1253;65914;-75
2023/05/15 11:24:52;;;;;;;5.10;3.70;;;;;;;37.53;20.05;99792.23;105794;1254;60450;-73